createdAt,value
2022-11-10T00:02:07.401Z,4.9
2022-11-10T00:05:09.416Z,7.8
2022-11-10T00:08:11.341Z,6.8
2022-11-10T00:11:13.292Z,5.3
2022-11-10T00:14:15.279Z,6.1
2022-11-10T00:17:17.273Z,5
2022-11-10T00:20:19.411Z,10.2
2022-11-10T00:23:21.441Z,4.4
2022-11-10T00:26:23.132Z,5.1
2022-11-10T00:29:25.129Z,7.1
2022-11-10T00:32:27.069Z,6.5
2022-11-10T00:35:29.024Z,7.7
2022-11-10T00:38:31.004Z,8.2
2022-11-10T00:41:32.972Z,4.5
2022-11-10T00:44:34.921Z,7.9
2022-11-10T00:47:36.898Z,5.4
2022-11-10T00:50:38.897Z,5.1
2022-11-10T00:53:40.848Z,4.5
2022-11-10T00:56:42.815Z,5
2022-11-10T00:59:44.790Z,5.8
2022-11-10T01:02:46.742Z,5.5
2022-11-10T01:05:48.729Z,4.4
2022-11-10T01:08:50.713Z,4.3
2022-11-10T01:11:52.669Z,6.2
2022-11-10T01:14:54.641Z,6
2022-11-10T01:17:56.635Z,5.2
2022-11-10T01:20:58.587Z,8.4
2022-11-10T01:24:00.574Z,5.2
2022-11-10T01:27:02.537Z,7.6
2022-11-10T01:30:04.495Z,6.2
2022-11-10T01:33:06.452Z,4.9
2022-11-10T01:36:08.410Z,4.8
2022-11-10T01:39:10.382Z,4.6
2022-11-10T01:42:12.353Z,7
2022-11-10T01:45:14.312Z,3.6
2022-11-10T01:48:16.287Z,5.4
2022-11-10T01:51:18.250Z,6.4
2022-11-10T01:54:20.236Z,7.4
2022-11-10T01:57:22.204Z,6.1
2022-11-10T02:00:24.175Z,6
2022-11-10T02:03:26.127Z,7.3
2022-11-10T02:06:28.094Z,8
2022-11-10T02:09:30.069Z,7.5
2022-11-10T02:12:32.033Z,8.8
2022-11-10T02:15:33.995Z,6.2
2022-11-10T02:18:35.965Z,5.3
2022-11-10T02:21:37.933Z,5.9
2022-11-10T02:24:39.910Z,5.9
2022-11-10T02:27:41.863Z,4.6
2022-11-10T02:30:43.833Z,9.8
2022-11-10T02:33:45.796Z,5.7
2022-11-10T02:36:47.796Z,6.4
2022-11-10T02:39:49.718Z,7.6
2022-11-10T02:42:51.685Z,6.5
2022-11-10T02:45:53.657Z,7.3
2022-11-10T02:48:55.621Z,6.1
2022-11-10T02:51:57.581Z,7.2
2022-11-10T02:54:59.545Z,3.8
2022-11-10T02:58:01.542Z,6.8
2022-11-10T03:01:03.581Z,5.5
2022-11-10T03:04:05.432Z,5
2022-11-10T03:07:07.424Z,7.5
2022-11-10T03:10:09.358Z,7.8
2022-11-10T03:13:11.304Z,6.3
2022-11-10T03:16:13.273Z,5.6
2022-11-10T03:19:15.244Z,8.5
2022-11-10T03:22:17.205Z,7.9
2022-11-10T03:25:19.169Z,9.2
2022-11-10T03:28:21.156Z,7.9
2022-11-10T03:31:23.109Z,7.5
2022-11-10T03:34:28.152Z,8.6
2022-11-10T03:37:27.030Z,6.7
2022-11-10T03:40:29.011Z,8.8
2022-11-10T03:43:30.963Z,5.6
2022-11-10T03:46:32.940Z,7.1
2022-11-10T03:49:34.893Z,8.9
2022-11-10T03:52:36.860Z,7.8
2022-11-10T03:55:38.818Z,7.3
2022-11-10T03:58:40.785Z,8.3
2022-11-10T04:01:42.804Z,8
2022-11-10T04:04:44.713Z,7.2
2022-11-10T04:07:46.671Z,9.7
2022-11-10T04:10:48.633Z,5.6
2022-11-10T04:13:50.621Z,6
2022-11-10T04:16:52.570Z,5.9
2022-11-10T04:19:54.521Z,7.1
2022-11-10T04:22:56.479Z,7.1
2022-11-10T04:25:58.454Z,7.8
2022-11-10T04:29:00.409Z,6.7
2022-11-10T04:32:02.385Z,8.5
2022-11-10T04:35:04.351Z,6
2022-11-10T04:38:06.319Z,5.7
2022-11-10T04:41:08.286Z,8
2022-11-10T04:44:10.248Z,5.9
2022-11-10T04:47:12.281Z,8.7
2022-11-10T04:50:14.178Z,8.2
2022-11-10T04:53:16.149Z,7.5
2022-11-10T04:56:18.142Z,9.1
2022-11-10T04:59:20.083Z,7.7
2022-11-10T05:02:22.049Z,5.4
2022-11-10T05:05:24.013Z,7
2022-11-10T05:08:25.986Z,7.7
2022-11-10T05:11:27.954Z,5.1
2022-11-10T05:14:29.928Z,8.1
2022-11-10T05:17:31.885Z,5.7
2022-11-10T05:20:33.851Z,11.2
2022-11-10T05:23:35.810Z,5.8
2022-11-10T05:26:37.778Z,7.7
2022-11-10T05:29:39.745Z,7.3
2022-11-10T05:32:41.709Z,6.6
2022-11-10T05:35:43.691Z,6.2
2022-11-10T05:38:45.658Z,6.6
2022-11-10T05:41:47.628Z,6.5
2022-11-10T05:44:49.872Z,9.2
2022-11-10T05:47:51.541Z,10.8
2022-11-10T05:50:53.494Z,8.6
2022-11-10T05:53:55.480Z,8
2022-11-10T05:56:57.424Z,11.2
2022-11-10T05:59:59.377Z,10.1
2022-11-10T06:03:01.364Z,6.7
2022-11-10T06:06:03.316Z,11.8
2022-11-10T06:09:05.285Z,7.7
2022-11-10T06:12:07.240Z,10.3
2022-11-10T06:15:09.211Z,8.9
2022-11-10T06:18:11.172Z,13.8
2022-11-10T06:21:13.136Z,10.2
2022-11-10T06:24:15.102Z,13.4
2022-11-10T06:27:17.100Z,9.7
2022-11-10T06:30:19.025Z,11.6
2022-11-10T06:33:21.308Z,9.8
2022-11-10T06:36:22.940Z,11.1
2022-11-10T06:39:24.905Z,10
2022-11-10T06:42:26.888Z,13.3
2022-11-10T06:45:28.844Z,10.4
2022-11-10T06:48:30.817Z,13.2
2022-11-10T06:51:32.783Z,13.4
2022-11-10T06:54:34.744Z,11.8
2022-11-10T06:57:36.716Z,14
2022-11-10T07:00:38.663Z,13
2022-11-10T07:03:53.361Z,9.9
2022-11-10T07:06:42.659Z,10.1
2022-11-10T07:09:44.586Z,13.5
2022-11-10T07:12:46.531Z,12.2
2022-11-10T07:15:48.505Z,10.9
2022-11-10T07:18:50.444Z,14.5
2022-11-10T07:21:52.417Z,10.3
2022-11-10T07:24:54.385Z,10
2022-11-10T07:27:56.354Z,18.2
2022-11-10T07:30:58.369Z,16.8
2022-11-10T07:34:00.282Z,12.1
2022-11-10T07:37:02.248Z,14.9
2022-11-10T07:40:04.213Z,12.6
2022-11-10T07:43:06.209Z,10.7
2022-11-10T07:46:08.137Z,12.2
2022-11-10T07:49:10.097Z,13.7
2022-11-10T07:52:12.093Z,12.9
2022-11-10T07:55:14.067Z,12.2
2022-11-10T07:58:16.031Z,15.4
2022-11-10T08:01:18.017Z,15
2022-11-10T08:04:20.043Z,15.6
2022-11-10T08:07:22.035Z,11.4
2022-11-10T08:10:23.871Z,15.8
2022-11-10T08:13:28.831Z,12.6
2022-11-10T08:16:30.800Z,12.8
2022-11-10T08:19:32.749Z,12.5
2022-11-10T08:22:34.728Z,10.7
2022-11-10T08:25:36.690Z,12.4
2022-11-10T08:28:38.654Z,14.4
2022-11-10T08:31:40.618Z,13.5
2022-11-10T08:34:42.588Z,11.5
2022-11-10T08:37:44.551Z,13.6
2022-11-10T08:40:46.534Z,14.6
2022-11-10T08:43:48.481Z,10.3
2022-11-10T08:46:50.473Z,11.9
2022-11-10T08:49:52.440Z,12.6
2022-11-10T08:52:54.407Z,12.6
2022-11-10T08:55:56.356Z,15.7
2022-11-10T08:58:58.316Z,14.1
2022-11-10T09:02:00.287Z,15.7
2022-11-10T09:05:02.318Z,12.5
2022-11-10T09:08:04.221Z,14.6
2022-11-10T09:11:06.243Z,9.7
2022-11-10T09:14:08.155Z,10.6
2022-11-10T09:17:10.109Z,9.7
2022-11-10T09:20:12.142Z,9.6
2022-11-10T09:23:14.040Z,11.9
2022-11-10T09:26:16.008Z,10.3
2022-11-10T09:29:17.983Z,11.8
2022-11-10T09:32:19.910Z,9.3
2022-11-10T09:35:21.877Z,10.6
2022-11-10T09:38:23.993Z,12.9
2022-11-10T09:41:25.811Z,11.2
2022-11-10T09:44:27.773Z,7.8
2022-11-10T09:47:51.015Z,11.4
2022-11-10T09:50:31.677Z,10.2
2022-11-10T09:53:33.639Z,7
2022-11-10T09:56:35.598Z,13.2
2022-11-10T09:59:38.521Z,9.5
2022-11-10T10:02:39.532Z,8.1
2022-11-10T10:05:41.487Z,9.7
2022-11-10T10:08:43.451Z,9.9
2022-11-10T10:11:45.417Z,11
2022-11-10T10:14:47.387Z,12.2
2022-11-10T10:17:49.355Z,13.8
2022-11-10T10:20:51.321Z,12.3
2022-11-10T10:24:10.165Z,10
2022-11-10T10:26:55.266Z,8.6
2022-11-10T10:29:57.202Z,7.3
2022-11-10T10:32:59.186Z,9.2
2022-11-10T10:36:01.153Z,10.8
2022-11-10T10:39:03.108Z,8.2
2022-11-10T10:42:05.076Z,5.1
2022-11-10T10:45:07.055Z,7.8
2022-11-10T10:48:09.013Z,8.8
2022-11-10T10:51:10.977Z,5.3
2022-11-10T10:54:12.931Z,11.9
2022-11-10T10:57:14.898Z,8.8
2022-11-10T11:00:16.950Z,6.7
2022-11-10T11:03:18.834Z,10.2
2022-11-10T11:06:20.780Z,8.1
2022-11-10T11:09:22.738Z,8.5
2022-11-10T11:12:24.692Z,7.4
2022-11-10T11:15:26.680Z,7.9
2022-11-10T11:18:28.653Z,7.3
2022-11-10T11:21:30.611Z,8.1
2022-11-10T11:24:32.580Z,8.2
2022-11-10T11:27:34.527Z,7.9
2022-11-10T11:30:36.503Z,10.2
2022-11-10T11:33:38.451Z,8.6
2022-11-10T11:36:40.430Z,6
2022-11-10T11:39:42.407Z,8.8
2022-11-10T11:42:44.375Z,5.9
2022-11-10T11:45:46.322Z,6.8
2022-11-10T11:48:48.299Z,5.6
2022-11-10T11:51:50.253Z,8
2022-11-10T11:54:52.235Z,6.1
2022-11-10T11:57:54.197Z,10.3
2022-11-10T12:00:56.156Z,8.3
2022-11-10T12:03:58.136Z,8
2022-11-10T12:07:00.146Z,6.2
2022-11-10T12:10:02.175Z,8.3
2022-11-10T12:13:04.131Z,9.6
2022-11-10T12:16:06.085Z,5.9
2022-11-10T12:19:08.046Z,6.1
2022-11-10T12:22:10.016Z,6.8
2022-11-10T12:25:11.966Z,6.6
2022-11-10T12:28:13.953Z,7.2
2022-11-10T12:31:15.918Z,4.5
2022-11-10T12:34:17.902Z,5.5
2022-11-10T12:37:23.504Z,8
2022-11-10T12:40:21.806Z,8.5
2022-11-10T12:43:24.061Z,7.8
2022-11-10T12:46:25.731Z,7.5
2022-11-10T12:49:27.693Z,7
2022-11-10T12:52:29.691Z,8.3
2022-11-10T12:55:31.608Z,7.3
2022-11-10T12:58:33.586Z,6.4
2022-11-10T13:01:35.605Z,7.4
2022-11-10T13:04:37.514Z,6.2
2022-11-10T13:07:39.471Z,5.6
2022-11-10T13:10:41.433Z,7.8
2022-11-10T13:13:43.421Z,6.2
2022-11-10T13:16:45.378Z,6.5
2022-11-10T13:19:47.332Z,6.6
2022-11-10T13:22:49.295Z,7
2022-11-10T13:25:51.274Z,8.8
2022-11-10T13:28:53.318Z,5.8
2022-11-10T13:31:55.216Z,7.7
2022-11-10T13:34:57.161Z,8.1
2022-11-10T13:37:59.137Z,6.2
2022-11-10T13:41:01.097Z,6.1
2022-11-10T13:44:03.079Z,6.2
2022-11-10T13:47:05.033Z,6.4
2022-11-10T13:50:06.999Z,6.8
2022-11-10T13:53:08.959Z,5.5
2022-11-10T13:56:10.927Z,5.2
2022-11-10T13:59:12.890Z,6.3
2022-11-10T14:02:14.858Z,8.6
2022-11-10T14:05:16.828Z,5.9
2022-11-10T14:08:18.770Z,6.7
2022-11-10T14:11:20.748Z,7
2022-11-10T14:14:22.693Z,8.8
2022-11-10T14:17:24.644Z,5
2022-11-10T14:20:26.619Z,5.2
2022-11-10T14:23:28.581Z,6
2022-11-10T14:26:30.556Z,7.4
2022-11-10T14:29:32.506Z,5.2
2022-11-10T14:32:34.475Z,7
2022-11-10T14:35:36.425Z,4.6
2022-11-10T14:38:38.391Z,9.9
2022-11-10T14:41:40.360Z,6.1
2022-11-10T14:44:42.315Z,6.8
2022-11-10T14:47:44.289Z,6.4
2022-11-10T14:50:46.342Z,7.1
2022-11-10T14:53:48.211Z,7.5
2022-11-10T14:56:50.184Z,6
2022-11-10T14:59:52.126Z,7.6
2022-11-10T15:02:54.164Z,5.5
2022-11-10T15:05:56.099Z,8.1
2022-11-10T15:08:58.062Z,6.6
2022-11-10T15:12:00.019Z,8.8
2022-11-10T15:15:01.981Z,5.2
2022-11-10T15:18:03.935Z,8.2
2022-11-10T15:21:05.907Z,7.2
2022-11-10T15:24:07.872Z,7.3
2022-11-10T15:27:09.828Z,7.1
2022-11-10T15:30:11.797Z,5.1
2022-11-10T15:33:13.754Z,7
2022-11-10T15:36:15.723Z,6.5
2022-11-10T15:39:17.745Z,6.5
2022-11-10T15:42:19.652Z,4.9
2022-11-10T15:45:21.602Z,9.8
2022-11-10T15:48:23.812Z,7.2
2022-11-10T15:51:26.417Z,5.6
2022-11-10T15:54:27.510Z,6.9
2022-11-10T15:57:29.523Z,6
2022-11-10T16:00:31.475Z,5.4
2022-11-10T16:03:33.430Z,7.1
2022-11-10T16:06:35.437Z,7.4
2022-11-10T16:09:37.369Z,4.5
2022-11-10T16:12:39.317Z,8.9
2022-11-10T16:15:41.286Z,7.1
2022-11-10T16:18:44.017Z,5.8
2022-11-10T16:21:45.256Z,6.1
2022-11-10T16:24:47.214Z,8.9
2022-11-10T16:27:49.224Z,6.8
2022-11-10T16:30:51.125Z,9.9
2022-11-10T16:33:53.104Z,7.8
2022-11-10T16:36:55.080Z,8.1
2022-11-10T16:39:57.033Z,5.6
2022-11-10T16:42:59.001Z,10.7
2022-11-10T16:46:00.957Z,11.7
2022-11-10T16:49:02.918Z,6.3
2022-11-10T16:52:04.863Z,7.4
2022-11-10T16:55:06.825Z,8.4
2022-11-10T16:58:08.803Z,8.1
2022-11-10T17:01:10.803Z,10.7
2022-11-10T17:04:12.722Z,10.5
2022-11-10T17:07:14.939Z,10.3
2022-11-10T17:10:16.793Z,8.7
2022-11-10T17:13:18.746Z,8.6
2022-11-10T17:16:20.716Z,9.3
2022-11-10T17:19:22.691Z,8.3
2022-11-10T17:22:24.652Z,13.7
2022-11-10T17:25:26.626Z,8.6
2022-11-10T17:28:28.605Z,7.7
2022-11-10T17:31:30.568Z,12.1
2022-11-10T17:34:32.531Z,11.6
2022-11-10T17:37:34.497Z,9.9
2022-11-10T17:40:36.451Z,10.6
2022-11-10T17:43:41.540Z,10.7
2022-11-10T17:46:40.389Z,9.8
2022-11-10T17:49:42.348Z,7.1
2022-11-10T17:52:44.390Z,10
2022-11-10T17:55:46.288Z,8.3
2022-11-10T17:58:48.245Z,9.8
2022-11-10T18:01:50.372Z,9.4
2022-11-10T18:04:52.199Z,10.9
2022-11-10T18:07:54.155Z,14.9
2022-11-10T18:10:56.115Z,11.3
2022-11-10T18:13:58.086Z,8.5
2022-11-10T18:17:00.051Z,8.9
2022-11-10T18:20:02.131Z,9.8
2022-11-10T18:23:03.997Z,8.5
2022-11-10T18:26:05.978Z,8.9
2022-11-10T18:29:08.075Z,9.8
2022-11-10T18:32:10.038Z,12.6
2022-11-10T18:35:11.997Z,11.9
2022-11-10T18:38:13.945Z,11.5
2022-11-10T18:41:15.895Z,9.6
2022-11-10T18:44:17.866Z,8.3
2022-11-10T18:47:19.852Z,10.3
2022-11-10T18:50:21.796Z,11.4
2022-11-10T18:53:24.014Z,10.6
2022-11-10T18:56:25.712Z,11
2022-11-10T18:59:27.701Z,14.6
2022-11-10T19:02:29.757Z,13.9
2022-11-10T19:05:31.729Z,14.2
2022-11-10T19:08:33.693Z,11.4
2022-11-10T19:11:35.655Z,12.5
2022-11-10T19:14:37.620Z,15.5
2022-11-10T19:17:39.583Z,14.5
2022-11-10T19:20:41.551Z,12.1
2022-11-10T19:23:43.509Z,17.5
2022-11-10T19:26:45.471Z,13.9
2022-11-10T19:29:47.574Z,11.6
2022-11-10T19:32:49.542Z,13.8
2022-11-10T19:35:51.514Z,11.9
2022-11-10T19:38:53.586Z,13.4
2022-11-10T19:41:55.420Z,18
2022-11-10T19:44:57.413Z,18.6
2022-11-10T19:47:59.352Z,16.8
2022-11-10T19:51:01.313Z,16.6
2022-11-10T19:54:03.274Z,13.2
2022-11-10T19:57:05.272Z,17.4
2022-11-10T20:00:07.203Z,16.7
2022-11-10T20:03:09.189Z,16.4
2022-11-10T20:06:11.187Z,15.6
2022-11-10T20:09:13.121Z,19.8
2022-11-10T20:12:15.086Z,15.3
2022-11-10T20:15:17.037Z,14.2
2022-11-10T20:18:19.035Z,15.5
2022-11-10T20:21:20.975Z,14.9
2022-11-10T20:24:22.933Z,17.8
2022-11-10T20:27:24.944Z,14.1
2022-11-10T20:30:26.902Z,12.2
2022-11-10T20:33:28.919Z,13.5
2022-11-10T20:36:30.823Z,17
2022-11-10T20:39:32.779Z,15.1
2022-11-10T20:42:37.822Z,13.9
2022-11-10T20:45:36.711Z,13
2022-11-10T20:48:38.686Z,13.3
2022-11-10T20:51:40.644Z,14.7
2022-11-10T20:54:42.613Z,14.5
2022-11-10T20:57:44.580Z,13.3
2022-11-10T21:00:46.541Z,16.2
2022-11-10T21:03:48.506Z,18.6
2022-11-10T21:06:50.515Z,16.7
2022-11-10T21:09:52.446Z,29.1
2022-11-10T21:12:54.385Z,16.2
2022-11-10T21:15:56.380Z,21.3
2022-11-10T21:18:58.345Z,20.6
2022-11-10T21:22:00.311Z,19.4
2022-11-10T21:25:02.288Z,19.5
2022-11-10T21:28:04.287Z,20.7
2022-11-10T21:31:06.222Z,17.5
2022-11-10T21:34:08.258Z,17.3
2022-11-10T21:37:10.880Z,18
2022-11-10T21:40:12.147Z,18.3
2022-11-10T21:43:14.083Z,18.2
2022-11-10T21:46:16.043Z,16.8
2022-11-10T21:49:18.031Z,18.9
2022-11-10T21:52:20.027Z,13.5
2022-11-10T21:55:21.997Z,14.3
2022-11-10T21:58:23.963Z,16.1
2022-11-10T22:01:25.948Z,15.8
2022-11-10T22:04:27.905Z,15.4
2022-11-10T22:07:29.865Z,14.5
2022-11-10T22:10:31.832Z,12
2022-11-10T22:13:33.797Z,14.9
2022-11-10T22:16:35.764Z,15.4
2022-11-10T22:19:37.718Z,13.1
2022-11-10T22:22:39.700Z,14.2
2022-11-10T22:25:41.654Z,12.7
2022-11-10T22:28:43.622Z,12.2
2022-11-10T22:31:45.592Z,13.9
2022-11-10T22:34:47.611Z,14.6
2022-11-10T22:37:49.514Z,10
2022-11-10T22:40:51.484Z,13.4
2022-11-10T22:43:53.475Z,15.7
2022-11-10T22:46:55.430Z,12.2
2022-11-10T22:49:57.393Z,10.1
2022-11-10T22:52:59.366Z,10.4
2022-11-10T22:56:01.329Z,16
2022-11-10T22:59:03.294Z,14.9
2022-11-10T23:02:05.263Z,15.1
2022-11-10T23:05:07.301Z,15
2022-11-10T23:08:09.268Z,13.1
2022-11-10T23:11:11.217Z,13.6
2022-11-10T23:14:13.185Z,12.8
2022-11-10T23:17:15.146Z,13
2022-11-10T23:20:17.122Z,14.6
2022-11-10T23:23:19.073Z,14.2
2022-11-10T23:26:21.036Z,17.2
2022-11-10T23:29:22.993Z,18.1
2022-11-10T23:32:24.958Z,15.5
2022-11-10T23:35:26.915Z,14.3
2022-11-10T23:38:28.862Z,16.4
2022-11-10T23:41:30.828Z,13.7
2022-11-10T23:44:32.800Z,16.6
2022-11-10T23:47:34.765Z,17.1
2022-11-10T23:50:36.728Z,17.5
2022-11-10T23:53:38.703Z,17.9
2022-11-10T23:56:40.681Z,15.6
2022-11-10T23:59:42.629Z,19.6
